Wintergreen, VA

10:32 AM EDT on September 20, 2014 (GMT -0400)
Spruce Creek Park | Change Station
CLOSE
Current Station
Personal Weather Station
Location: Nellysford, VA
Elevation: 843 ft
Nearby Weather Stations

Elev 843 ft 37.89 °N, 78.90 °W | Updated 14 seconds ago

Clear
Clear
68.7 °F
Feels Like 68.7 °F
N
2.0
Wind Variable Wind from ESE
Gusts 6.0 mph

Today
High -- | Low -- °F
--% Chance of Precip.
Yesterday
High -- | Low -- °F
Precip. -- in
7:01 AM 7:15 PM
Waning Crescent, 12% visible
Pressure 30.25 in
Visibility 10.0 miles
Clouds Clear
Dew Point 60 °F
Humidity 72%
Rainfall 0.00 in
Snow Depth Not available.
UV 3 out of 12
Pollen 5.60 out of 12
Air Quality Not available.
Flu Activity Not available.
METAR KCHO 201353Z 00000KT 10SM CLR 19/15 A3026 RMK AO2 SLP241 T01940150

More Conditions Fewer Conditions

Pressure 30.25 in
Visibility 10.0 miles
Clouds Clear
Dew Point 60 °F
Humidity 72%
Rainfall 0.00 in
Snow Depth Not available.
UV 3 out of 12
Pollen 5.60 out of 12
Air Quality Not available.
Flu Activity Not available.
METAR KCHO 201353Z 00000KT 10SM CLR 19/15 A3026 RMK AO2 SLP241 T01940150

More Conditions Fewer Conditions

10-Day Weather Forecast

Almanac

Astronomy

Sep. 20, 2014 Rise Set
Actual Time 7:01 AM EDT 7:15 PM EDT
Civil Twilight 6:35 AM EDT 7:41 PM EDT
Nautical Twilight 6:04 AM EDT 8:12 PM EDT
Astronomical Twilight 5:33 AM EDT 8:43 PM EDT
Moon 3:41 AM EDT 5:15 PM EDT
Length of Visible Light 13h 06m
Length of Day
12h 14m
Tomorrow will be 2m 25s shorter.
Waning Crescent, 12% of the Moon is Illuminated
Today
Waning Crescent
Sep 24
New
Oct 1
First Quarter
Oct 8
Full
Oct 15
Last Quarter

Today's Extremes

State Highs State Lows

Community

WunderPhotos

Upload Photos

1,754,872 photos uploaded!

WunderBlogs® & News

Nearby

Snow Depth

Station Depth Elevation
No new snow has been reported.

Earthquake Activity

City Distance Mag. Time & Date
No recent earthquake activity has been reported nearby.
Minimum magnitude displayed is 2.5.

Coastal Water Temperatures

Place Temperature
No Stations Reporting

Nearby Weather Stations